createdAt,value
2022-09-28T00:01:17.568Z,84.04
2022-09-28T00:03:47.467Z,84.29
2022-09-28T00:06:18.498Z,84.42
2022-09-28T00:08:46.837Z,84.66
2022-09-28T00:11:16.373Z,84.82
2022-09-28T00:13:46.085Z,84.38
2022-09-28T00:16:16.866Z,84.37
2022-09-28T00:18:47.532Z,84.39
2022-09-28T00:21:17.348Z,84.20
2022-09-28T00:23:59.849Z,84.79
2022-09-28T00:26:28.599Z,84.23
2022-09-28T00:28:58.568Z,85.08
2022-09-28T00:31:26.945Z,84.38
2022-09-28T00:33:56.968Z,84.32
2022-09-28T00:36:27.009Z,84.58
2022-09-28T00:38:55.636Z,84.43
2022-09-28T00:41:24.371Z,84.44
2022-09-28T00:43:52.444Z,84.34
2022-09-28T00:46:24.934Z,84.46
2022-09-28T00:48:56.184Z,84.04
2022-09-28T00:51:27.419Z,84.29
2022-09-28T00:53:57.051Z,84.48
2022-09-28T00:56:28.098Z,84.52
2022-09-28T00:58:56.065Z,84.76
2022-09-28T01:01:24.101Z,84.68
2022-09-28T01:03:52.136Z,84.71
2022-09-28T01:06:22.568Z,84.58
2022-09-28T01:08:54.912Z,84.91
2022-09-28T01:11:22.904Z,84.86
2022-09-28T01:13:53.345Z,84.98
2022-09-28T01:16:30.893Z,85.13
2022-09-28T01:19:07.923Z,84.94
2022-09-28T01:21:47.165Z,84.91
2022-09-28T01:24:40.240Z,85.15
2022-09-28T01:27:15.923Z,85.11
2022-09-28T01:29:55.409Z,85.19
2022-09-28T01:32:44.645Z,85.00
2022-09-28T01:35:16.294Z,85.55
2022-09-28T01:37:52.011Z,84.98
2022-09-28T01:40:22.188Z,84.88
2022-09-28T01:42:56.328Z,84.84
2022-09-28T01:45:28.525Z,85.43
2022-09-28T01:47:59.639Z,85.47
2022-09-28T01:50:31.418Z,85.43
2022-09-28T01:53:04.793Z,85.40
2022-09-28T01:55:35.706Z,85.52
2022-09-28T01:58:12.574Z,85.73
2022-09-28T02:00:45.689Z,85.54
2022-09-28T02:03:18.647Z,85.14
2022-09-28T02:05:50.543Z,85.53
2022-09-28T02:08:25.397Z,85.45
2022-09-28T02:10:59.197Z,85.23
2022-09-28T02:13:33.949Z,84.36
2022-09-28T02:16:08.091Z,84.95
2022-09-28T02:18:36.164Z,85.47
2022-09-28T02:21:09.883Z,84.63
2022-09-28T02:23:41.054Z,84.95
2022-09-28T02:26:13.312Z,84.30
2022-09-28T02:28:42.605Z,84.03
2022-09-28T02:31:10.354Z,84.98
2022-09-28T02:33:40.926Z,83.61
2022-09-28T02:36:08.860Z,83.95
2022-09-28T02:38:37.410Z,83.94
2022-09-28T02:41:10.106Z,84.77
2022-09-28T02:43:50.310Z,84.63
2022-09-28T02:46:30.443Z,84.47
2022-09-28T02:49:21.872Z,84.52
2022-09-28T02:52:09.229Z,84.55
2022-09-28T02:55:11.520Z,84.26
2022-09-28T02:57:53.137Z,84.57
2022-09-28T03:00:23.940Z,84.76
2022-09-28T03:03:03.079Z,84.60
2022-09-28T03:05:36.705Z,84.67
2022-09-28T03:08:07.879Z,85.35
2022-09-28T03:10:41.355Z,85.35
2022-09-28T03:13:10.132Z,84.90
2022-09-28T03:15:39.226Z,84.62
2022-09-28T03:18:07.043Z,84.91
2022-09-28T03:20:35.281Z,85.38
2022-09-28T03:25:50.641Z,85.48
2022-09-28T03:28:18.403Z,85.39
2022-09-28T03:30:47.482Z,85.23
2022-09-28T03:33:15.105Z,84.91
2022-09-28T03:35:42.764Z,84.95
2022-09-28T03:38:10.425Z,85.35
2022-09-28T03:40:38.088Z,85.70
2022-09-28T03:43:05.790Z,85.24
2022-09-28T03:45:33.437Z,85.19
2022-09-28T03:48:02.748Z,84.91
2022-09-28T03:50:30.437Z,85.68
2022-09-28T03:53:03.362Z,85.75
2022-09-28T03:55:31.353Z,84.92
2022-09-28T03:57:59.033Z,85.17
2022-09-28T04:00:26.674Z,85.05
2022-09-28T04:02:55.082Z,85.17
2022-09-28T04:05:24.197Z,85.60
2022-09-28T04:07:53.254Z,85.59
2022-09-28T04:10:20.896Z,85.75
2022-09-28T04:12:49.741Z,85.39
2022-09-28T04:15:17.942Z,85.45
2022-09-28T04:17:45.768Z,85.11
2022-09-28T04:20:13.389Z,84.98
2022-09-28T04:22:43.109Z,84.93
2022-09-28T04:25:10.878Z,85.04
2022-09-28T04:27:56.672Z,85.11
2022-09-28T04:30:24.680Z,85.23
2022-09-28T04:32:52.324Z,85.14
2022-09-28T04:35:20.026Z,85.30
2022-09-28T04:37:49.023Z,85.24
2022-09-28T04:40:16.753Z,85.30
2022-09-28T04:42:44.651Z,85.71
2022-09-28T04:45:12.344Z,85.45
2022-09-28T04:47:40.102Z,84.78
2022-09-28T04:50:08.662Z,85.47
2022-09-28T04:52:37.325Z,85.11
2022-09-28T04:55:07.402Z,85.38
2022-09-28T04:57:35.335Z,85.15
2022-09-28T05:00:03.215Z,85.39
2022-09-28T05:02:30.901Z,86.00
2022-09-28T05:04:58.932Z,85.13
2022-09-28T05:07:26.899Z,85.67
2022-09-28T05:09:55.270Z,84.48
2022-09-28T05:12:24.484Z,85.54
2022-09-28T05:14:52.282Z,85.70
2022-09-28T05:17:20.078Z,85.50
2022-09-28T05:19:47.740Z,86.03
2022-09-28T05:22:15.841Z,85.54
2022-09-28T05:24:43.689Z,85.92
2022-09-28T05:27:11.433Z,86.00
2022-09-28T05:29:40.466Z,85.92
2022-09-28T05:32:08.209Z,85.80
2022-09-28T05:34:35.979Z,85.94
2022-09-28T05:37:03.675Z,85.41
2022-09-28T05:39:31.342Z,85.75
2022-09-28T05:41:59.079Z,85.87
2022-09-28T05:44:26.882Z,86.11
2022-09-28T05:46:55.938Z,85.98
2022-09-28T05:49:23.640Z,86.17
2022-09-28T05:51:51.270Z,85.91
2022-09-28T05:54:18.996Z,86.54
2022-09-28T05:56:46.815Z,85.89
2022-09-28T05:59:14.505Z,86.46
2022-09-28T06:01:42.338Z,86.01
2022-09-28T06:04:11.443Z,86.58
2022-09-28T06:06:39.356Z,86.18
2022-09-28T06:09:07.072Z,86.67
2022-09-28T06:11:34.895Z,86.14
2022-09-28T06:14:02.574Z,86.89
2022-09-28T06:16:30.662Z,86.47
2022-09-28T06:18:58.418Z,86.19
2022-09-28T06:21:27.646Z,86.46
2022-09-28T06:23:55.271Z,86.04
2022-09-28T06:26:22.917Z,85.50
2022-09-28T06:28:50.573Z,86.09
2022-09-28T06:31:23.554Z,86.10
2022-09-28T06:33:52.221Z,86.37
2022-09-28T06:36:21.359Z,85.69
2022-09-28T06:38:50.683Z,85.62
2022-09-28T06:41:18.501Z,85.12
2022-09-28T06:43:46.489Z,85.55
2022-09-28T06:46:14.906Z,85.29
2022-09-28T06:48:44.287Z,85.26
2022-09-28T06:51:12.177Z,85.77
2022-09-28T06:53:39.832Z,86.27
2022-09-28T06:56:11.396Z,86.11
2022-09-28T06:58:39.212Z,86.05
2022-09-28T07:01:07.164Z,86.38
2022-09-28T07:03:34.872Z,85.62
2022-09-28T07:06:02.692Z,86.05
2022-09-28T07:08:30.462Z,85.70
2022-09-28T07:10:58.139Z,85.04
2022-09-28T07:13:48.468Z,85.82
2022-09-28T07:16:17.062Z,85.63
2022-09-28T07:18:44.886Z,84.96
2022-09-28T07:21:23.865Z,85.40
2022-09-28T07:23:54.676Z,85.52
2022-09-28T07:26:24.482Z,85.14
2022-09-28T07:28:55.806Z,83.97
2022-09-28T07:31:25.221Z,84.19
2022-09-28T07:33:54.050Z,84.73
2022-09-28T07:36:22.707Z,84.25
2022-09-28T07:38:50.540Z,83.70
2022-09-28T07:41:22.321Z,82.82
2022-09-28T07:43:50.820Z,83.29
2022-09-28T07:46:21.213Z,82.98
2022-09-28T07:48:51.778Z,83.72
2022-09-28T07:51:21.116Z,82.99
2022-09-28T07:53:49.127Z,83.42
2022-09-28T07:56:18.224Z,82.81
2022-09-28T07:58:48.163Z,83.15
2022-09-28T08:01:16.584Z,82.86
2022-09-28T08:03:47.998Z,82.07
2022-09-28T08:06:17.773Z,83.00
2022-09-28T08:08:46.015Z,82.63
2022-09-28T08:11:15.154Z,82.91
2022-09-28T08:13:43.915Z,81.12
2022-09-28T08:16:11.883Z,81.50
2022-09-28T08:18:39.632Z,81.56
2022-09-28T08:21:26.194Z,82.11
2022-09-28T08:23:53.943Z,81.50
2022-09-28T08:26:21.749Z,80.59
2022-09-28T08:28:49.423Z,81.26
2022-09-28T08:31:17.128Z,80.72
2022-09-28T08:33:45.080Z,81.57
2022-09-28T08:36:14.144Z,80.71
2022-09-28T08:38:41.805Z,79.92
2022-09-28T08:41:18.468Z,78.58
2022-09-28T08:44:15.518Z,78.23
2022-09-28T08:46:47.716Z,78.97
2022-09-28T08:49:25.469Z,78.91
2022-09-28T08:51:59.010Z,78.42
2022-09-28T08:54:34.845Z,78.56
2022-09-28T08:57:06.628Z,78.14
2022-09-28T08:59:46.426Z,78.74
2022-09-28T09:02:19.200Z,77.48
2022-09-28T09:04:47.140Z,78.57
2022-09-28T09:07:33.199Z,78.71
2022-09-28T09:10:12.703Z,77.23
2022-09-28T09:12:48.396Z,76.95
2022-09-28T09:15:48.129Z,75.57
2022-09-28T09:18:26.136Z,75.46
2022-09-28T09:20:57.524Z,74.60
2022-09-28T09:23:37.231Z,74.92
2022-09-28T09:26:14.668Z,75.58
2022-09-28T09:29:18.334Z,74.75
2022-09-28T09:32:04.338Z,75.61
2022-09-28T09:34:49.077Z,76.89
2022-09-28T09:37:26.426Z,76.67
2022-09-28T09:40:16.244Z,77.15
2022-09-28T09:42:58.001Z,75.75
2022-09-28T09:45:43.856Z,75.30
2022-09-28T09:48:18.935Z,74.52
2022-09-28T09:50:51.564Z,74.67
2022-09-28T09:53:25.275Z,73.58
2022-09-28T09:55:57.392Z,71.73
2022-09-28T09:58:29.611Z,72.23
2022-09-28T10:01:03.117Z,71.23
2022-09-28T10:03:34.062Z,71.35
2022-09-28T10:06:07.406Z,72.03
2022-09-28T10:08:40.743Z,70.97
2022-09-28T10:11:16.518Z,71.78
2022-09-28T10:13:44.806Z,72.31
2022-09-28T10:16:12.720Z,72.88
2022-09-28T10:18:40.502Z,71.85
2022-09-28T10:21:12.645Z,71.12
2022-09-28T10:23:42.177Z,71.62
2022-09-28T10:26:14.620Z,70.75
2022-09-28T10:28:46.483Z,71.56
2022-09-28T10:31:40.111Z,71.17
2022-09-28T10:34:09.198Z,71.60
2022-09-28T10:36:48.615Z,70.34
2022-09-28T10:39:31.278Z,69.86
2022-09-28T10:42:03.500Z,69.13
2022-09-28T10:44:34.640Z,70.38
2022-09-28T10:47:04.215Z,70.14
2022-09-28T10:49:45.861Z,69.29
2022-09-28T10:52:33.336Z,69.06
2022-09-28T10:55:03.630Z,69.62
2022-09-28T10:57:35.729Z,70.03
2022-09-28T11:00:06.927Z,69.67
2022-09-28T11:02:37.402Z,69.28
2022-09-28T11:05:08.171Z,69.50
2022-09-28T11:07:46.306Z,70.14
2022-09-28T11:10:22.314Z,70.71
2022-09-28T11:12:52.771Z,70.72
2022-09-28T11:15:22.324Z,71.58
2022-09-28T11:17:50.088Z,71.61
2022-09-28T11:20:35.956Z,72.00
2022-09-28T11:23:20.517Z,72.83
2022-09-28T11:26:05.710Z,72.18
2022-09-28T11:28:37.839Z,73.21
2022-09-28T11:31:08.329Z,73.06
2022-09-28T11:33:38.384Z,73.08
2022-09-28T11:36:28.353Z,71.32
2022-09-28T11:39:06.393Z,72.00
2022-09-28T11:42:00.533Z,71.40
2022-09-28T11:44:46.516Z,70.20
2022-09-28T11:47:37.808Z,70.08
2022-09-28T11:50:17.850Z,70.11
2022-09-28T11:52:56.106Z,69.38
2022-09-28T11:55:34.465Z,68.69
2022-09-28T11:58:09.857Z,67.84
2022-09-28T12:00:46.520Z,68.36
2022-09-28T12:03:17.310Z,68.27
2022-09-28T12:05:49.551Z,68.32
2022-09-28T12:08:25.416Z,68.28
2022-09-28T12:10:59.377Z,68.30
2022-09-28T12:13:35.376Z,67.63
2022-09-28T12:16:32.656Z,67.45
2022-09-28T12:19:08.187Z,67.55
2022-09-28T12:21:43.701Z,65.68
2022-09-28T12:24:18.779Z,65.83
2022-09-28T12:27:13.867Z,67.13
2022-09-28T12:29:47.492Z,66.41
2022-09-28T12:32:29.405Z,65.77
2022-09-28T12:34:58.684Z,65.99
2022-09-28T12:37:41.324Z,66.80
2022-09-28T12:40:41.921Z,66.33
2022-09-28T12:43:33.971Z,65.77
2022-09-28T12:46:20.786Z,66.29
2022-09-28T12:52:18.970Z,64.07
2022-09-28T12:55:04.751Z,64.60
2022-09-28T12:57:42.010Z,64.01
2022-09-28T13:00:13.228Z,62.83
2022-09-28T13:03:03.077Z,63.57
2022-09-28T13:05:49.427Z,63.16
2022-09-28T13:08:27.040Z,62.29
2022-09-28T13:11:08.019Z,62.37
2022-09-28T13:13:48.458Z,63.22
2022-09-28T13:16:23.800Z,62.81
2022-09-28T13:18:58.772Z,60.90
2022-09-28T13:21:37.961Z,59.79
2022-09-28T13:24:28.186Z,59.94
2022-09-28T13:27:00.494Z,61.07
2022-09-28T13:29:29.025Z,60.86
2022-09-28T13:32:00.191Z,60.86
2022-09-28T13:34:30.569Z,61.72
2022-09-28T13:37:24.027Z,62.34
2022-09-28T13:39:53.098Z,64.94
2022-09-28T13:43:02.403Z,65.98
2022-09-28T13:45:40.003Z,69.47
2022-09-28T13:48:15.673Z,72.86
2022-09-28T13:51:05.777Z,72.97
2022-09-28T13:53:54.010Z,74.30
2022-09-28T13:56:31.219Z,74.88
2022-09-28T13:59:05.270Z,75.64
2022-09-28T14:01:38.610Z,76.84
2022-09-28T14:04:16.663Z,77.31
2022-09-28T14:06:51.396Z,77.17
2022-09-28T14:09:42.703Z,78.03
2022-09-28T14:12:46.955Z,78.62
2022-09-28T14:15:45.163Z,78.31
2022-09-28T14:18:32.606Z,78.50
2022-09-28T14:21:30.835Z,79.22
2022-09-28T14:24:13.181Z,79.43
2022-09-28T14:27:04.968Z,80.02
2022-09-28T14:29:35.239Z,80.35
2022-09-28T14:32:06.747Z,80.39
2022-09-28T14:34:38.046Z,80.87
2022-09-28T14:37:38.385Z,80.84
2022-09-28T14:40:35.538Z,80.57
2022-09-28T14:43:28.058Z,80.31
2022-09-28T14:46:34.024Z,79.47
2022-09-28T14:49:03.237Z,79.85
2022-09-28T14:52:04.079Z,80.72
2022-09-28T14:54:42.858Z,80.47
2022-09-28T14:57:18.291Z,79.63
2022-09-28T14:59:48.154Z,78.38
2022-09-28T15:02:21.285Z,77.54
2022-09-28T15:04:53.110Z,78.86
2022-09-28T15:07:24.421Z,77.91
2022-09-28T15:09:53.828Z,77.24
2022-09-28T15:12:25.221Z,78.33
2022-09-28T15:14:57.237Z,79.51
2022-09-28T15:17:28.135Z,79.30
2022-09-28T15:20:25.286Z,79.00
2022-09-28T15:22:57.498Z,78.98
2022-09-28T15:25:27.395Z,78.54
2022-09-28T15:27:57.033Z,78.88
2022-09-28T15:30:28.871Z,78.51
2022-09-28T15:33:17.778Z,78.63
2022-09-28T15:35:47.745Z,79.29
2022-09-28T15:38:18.370Z,79.90
2022-09-28T15:40:47.628Z,80.04
2022-09-28T15:43:26.894Z,80.82
2022-09-28T15:46:02.906Z,80.84
2022-09-28T15:48:32.808Z,80.82
2022-09-28T15:51:11.033Z,80.43
2022-09-28T15:53:46.392Z,79.89
2022-09-28T15:56:53.103Z,80.06
2022-09-28T15:59:35.665Z,79.58
2022-09-28T16:02:12.621Z,80.33
2022-09-28T16:04:44.233Z,79.28
2022-09-28T16:07:20.698Z,79.13
2022-09-28T16:10:04.729Z,79.34
2022-09-28T16:12:43.359Z,76.27
2022-09-28T16:15:20.168Z,77.23
2022-09-28T16:17:54.715Z,77.20
2022-09-28T16:20:29.142Z,76.37
2022-09-28T16:22:59.540Z,77.24
2022-09-28T16:25:27.970Z,75.06
2022-09-28T16:27:56.850Z,75.65
2022-09-28T16:30:27.163Z,77.15
2022-09-28T16:32:58.146Z,77.40
2022-09-28T16:35:28.704Z,77.55
2022-09-28T16:38:05.664Z,77.27
2022-09-28T16:40:34.410Z,77.39
2022-09-28T16:43:05.458Z,77.31
2022-09-28T16:45:35.132Z,77.64
2022-09-28T16:48:05.492Z,78.67
2022-09-28T16:50:33.230Z,79.07
2022-09-28T16:53:25.028Z,79.79
2022-09-28T16:55:52.754Z,80.02
2022-09-28T16:58:20.393Z,79.86
2022-09-28T17:00:48.065Z,79.63
2022-09-28T17:03:19.314Z,79.99
2022-09-28T17:05:50.917Z,80.15
2022-09-28T17:08:21.608Z,79.71
2022-09-28T17:13:42.169Z,80.62
2022-09-28T17:16:14.114Z,80.64
2022-09-28T17:18:43.332Z,80.66
2022-09-28T17:21:15.749Z,79.95
2022-09-28T17:23:43.510Z,79.59
2022-09-28T17:26:19.415Z,79.78
2022-09-28T17:28:47.180Z,79.93
2022-09-28T17:31:16.257Z,80.34
2022-09-28T17:33:45.845Z,80.88
2022-09-28T17:36:16.733Z,81.30
2022-09-28T17:38:45.055Z,81.38
2022-09-28T17:41:18.070Z,81.59
2022-09-28T17:43:48.046Z,81.75
2022-09-28T17:46:28.309Z,81.82
2022-09-28T17:48:59.653Z,82.24
2022-09-28T17:51:28.333Z,81.98
2022-09-28T17:53:56.843Z,82.30
2022-09-28T17:56:27.498Z,82.46
2022-09-28T17:59:00.812Z,82.97
2022-09-28T18:01:33.707Z,82.95
2022-09-28T18:04:05.261Z,82.72
2022-09-28T18:06:33.879Z,83.17
2022-09-28T18:09:02.782Z,83.65
2022-09-28T18:11:30.805Z,83.19
2022-09-28T18:13:58.527Z,83.43
2022-09-28T18:16:27.901Z,83.68
2022-09-28T18:18:55.776Z,83.56
2022-09-28T18:21:24.838Z,83.49
2022-09-28T18:23:52.475Z,83.65
2022-09-28T18:26:20.284Z,83.02
2022-09-28T18:28:48.150Z,83.59
2022-09-28T18:31:19.106Z,83.40
2022-09-28T18:33:48.300Z,83.58
2022-09-28T18:36:15.977Z,83.59
2022-09-28T18:38:45.079Z,83.47
2022-09-28T18:41:15.774Z,83.51
2022-09-28T18:43:44.177Z,83.35
2022-09-28T18:46:12.745Z,83.47
2022-09-28T18:48:41.598Z,82.89
2022-09-28T18:51:10.156Z,83.54
2022-09-28T18:53:38.040Z,83.31
2022-09-28T18:56:09.362Z,83.87
2022-09-28T18:58:37.951Z,83.72
2022-09-28T19:01:28.911Z,83.90
2022-09-28T19:03:59.806Z,83.91
2022-09-28T19:06:27.544Z,83.58
2022-09-28T19:08:56.780Z,83.57
2022-09-28T19:11:26.758Z,83.76
2022-09-28T19:13:55.322Z,83.30
2022-09-28T19:16:25.100Z,83.39
2022-09-28T19:18:53.635Z,83.32
2022-09-28T19:21:22.170Z,83.16
2022-09-28T19:23:50.220Z,83.61
2022-09-28T19:26:20.394Z,83.38
2022-09-28T19:28:50.012Z,83.46
2022-09-28T19:31:18.364Z,83.43
2022-09-28T19:33:46.724Z,83.40
2022-09-28T19:36:17.703Z,83.59
2022-09-28T19:38:46.241Z,83.70
2022-09-28T19:41:39.471Z,83.61
2022-09-28T19:44:15.770Z,83.39
2022-09-28T19:46:43.724Z,84.14
2022-09-28T19:49:13.375Z,83.41
2022-09-28T19:51:56.555Z,84.04
2022-09-28T19:54:36.323Z,83.62
2022-09-28T19:57:07.432Z,83.38
2022-09-28T19:59:37.376Z,83.62
2022-09-28T20:02:06.423Z,83.65
2022-09-28T20:04:34.191Z,84.24
2022-09-28T20:07:02.097Z,84.14
2022-09-28T20:09:29.803Z,84.27
2022-09-28T20:11:57.532Z,83.83
2022-09-28T20:14:27.906Z,83.72
2022-09-28T20:16:59.671Z,83.33
2022-09-28T20:19:42.367Z,83.80
2022-09-28T20:22:10.075Z,83.40
2022-09-28T20:24:37.832Z,83.58
2022-09-28T20:27:05.660Z,83.61
2022-09-28T20:29:33.755Z,84.01
2022-09-28T20:32:03.886Z,83.63
2022-09-28T20:34:33.451Z,84.20
2022-09-28T20:37:01.277Z,84.20
2022-09-28T20:39:29.235Z,84.57
2022-09-28T20:41:57.641Z,84.50
2022-09-28T20:44:25.379Z,84.36
2022-09-28T20:46:53.250Z,84.33
2022-09-28T20:49:22.319Z,84.00
2022-09-28T20:51:49.995Z,84.46
2022-09-28T20:54:17.727Z,85.00
2022-09-28T20:56:48.009Z,84.66
2022-09-28T20:59:15.758Z,85.19
2022-09-28T21:01:43.498Z,84.60
2022-09-28T21:04:11.807Z,85.07
2022-09-28T21:06:42.647Z,85.34
2022-09-28T21:09:12.270Z,85.11
2022-09-28T21:11:40.243Z,85.25
2022-09-28T21:14:10.097Z,84.99
2022-09-28T21:16:38.628Z,85.05
2022-09-28T21:19:06.361Z,85.22
2022-09-28T21:21:34.408Z,85.35
2022-09-28T21:24:03.555Z,85.06
2022-09-28T21:26:32.664Z,85.45
2022-09-28T21:29:01.829Z,85.04
2022-09-28T21:31:32.461Z,85.50
2022-09-28T21:34:00.674Z,84.76
2022-09-28T21:36:28.371Z,84.77
2022-09-28T21:38:56.193Z,85.37
2022-09-28T21:41:26.153Z,84.60
2022-09-28T21:43:53.878Z,84.90
2022-09-28T21:46:21.880Z,85.45
2022-09-28T21:48:53.343Z,85.28
2022-09-28T21:51:21.548Z,85.83
2022-09-28T21:53:49.657Z,85.66
2022-09-28T21:56:17.732Z,85.52
2022-09-28T21:58:47.266Z,85.31
2022-09-28T22:01:18.147Z,85.58
2022-09-28T22:03:47.903Z,85.16
2022-09-28T22:06:17.039Z,85.44
2022-09-28T22:08:44.874Z,85.62
2022-09-28T22:11:14.723Z,85.75
2022-09-28T22:13:43.922Z,85.92
2022-09-28T22:16:14.605Z,86.10
2022-09-28T22:18:42.889Z,85.83
2022-09-28T22:21:17.775Z,85.59
2022-09-28T22:23:46.117Z,85.68
2022-09-28T22:26:17.972Z,85.72
2022-09-28T22:28:47.773Z,85.25
2022-09-28T22:31:18.492Z,85.27
2022-09-28T22:33:46.382Z,85.50
2022-09-28T22:36:20.020Z,85.26
2022-09-28T22:38:49.372Z,85.59
2022-09-28T22:41:21.005Z,85.50
2022-09-28T22:43:50.081Z,85.52
2022-09-28T22:46:20.792Z,85.00
2022-09-28T22:48:49.645Z,85.11
2022-09-28T22:51:17.971Z,85.46
2022-09-28T22:53:46.320Z,85.13
2022-09-28T22:56:18.638Z,85.01
2022-09-28T22:58:47.209Z,84.61
2022-09-28T23:01:17.794Z,85.01
2022-09-28T23:03:47.322Z,84.70
2022-09-28T23:06:17.047Z,85.44
2022-09-28T23:08:45.467Z,85.07
2022-09-28T23:11:13.176Z,84.55
2022-09-28T23:13:40.853Z,85.08
2022-09-28T23:16:11.675Z,85.00
2022-09-28T23:18:40.808Z,84.82
2022-09-28T23:21:15.156Z,84.72
2022-09-28T23:23:42.947Z,84.45
2022-09-28T23:26:12.219Z,84.59
2022-09-28T23:28:39.982Z,84.68
2022-09-28T23:31:12.211Z,84.64
2022-09-28T23:33:40.037Z,84.36
2022-09-28T23:36:10.072Z,84.45
2022-09-28T23:38:38.118Z,84.69
2022-09-28T23:41:06.088Z,84.28
2022-09-28T23:43:33.839Z,84.45
2022-09-28T23:46:01.745Z,84.25
2022-09-28T23:48:29.482Z,84.24
2022-09-28T23:50:57.157Z,84.15
2022-09-28T23:53:26.280Z,83.87
2022-09-28T23:55:54.367Z,83.77
2022-09-28T23:58:22.465Z,84.52
